createdAt,value
2018-01-11T00:00:11.551Z,1000.88
2018-01-11T00:01:12.152Z,1000.92
2018-01-11T00:02:12.748Z,1000.92
2018-01-11T00:03:13.364Z,1000.92
2018-01-11T00:04:13.976Z,1000.89
2018-01-11T00:05:14.589Z,1000.87
2018-01-11T00:06:15.201Z,1000.89
2018-01-11T00:07:15.810Z,1000.86
2018-01-11T00:08:16.418Z,1000.86
2018-01-11T00:09:17.023Z,1000.89
2018-01-11T00:10:17.620Z,1000.88
2018-01-11T00:11:18.228Z,1000.89
2018-01-11T00:12:18.828Z,1000.90
2018-01-11T00:13:19.429Z,1000.93
2018-01-11T00:14:20.027Z,1000.87
2018-01-11T00:15:20.628Z,1000.85
2018-01-11T00:16:21.213Z,1000.84
2018-01-11T00:17:21.813Z,1000.84
2018-01-11T00:18:22.423Z,1000.85
2018-01-11T00:19:23.035Z,1000.86
2018-01-11T00:20:23.651Z,1000.85
2018-01-11T00:21:24.255Z,1000.89
2018-01-11T00:22:24.860Z,1000.96
2018-01-11T00:23:25.466Z,1000.96
2018-01-11T00:24:26.073Z,1000.99
2018-01-11T00:25:26.728Z,1001.03
2018-01-11T00:26:27.280Z,1001.02
2018-01-11T00:27:27.884Z,1001.05
2018-01-11T00:28:28.488Z,1001.09
2018-01-11T00:29:29.079Z,1001.05
2018-01-11T00:30:29.679Z,1001.12
2018-01-11T00:31:30.286Z,1001.15
2018-01-11T00:32:30.895Z,1001.15
2018-01-11T00:33:31.503Z,1001.18
2018-01-11T00:34:32.101Z,1001.18
2018-01-11T00:35:32.705Z,1001.16
2018-01-11T00:36:33.311Z,1001.16
2018-01-11T00:37:33.913Z,1001.21
2018-01-11T00:38:34.521Z,1001.21
2018-01-11T00:39:35.124Z,1001.25
2018-01-11T00:40:35.728Z,1001.27
2018-01-11T00:41:36.350Z,1001.29
2018-01-11T00:42:36.952Z,1001.34
2018-01-11T00:43:37.540Z,1001.35
2018-01-11T00:44:38.137Z,1001.35
2018-01-11T00:45:38.730Z,1001.36
2018-01-11T00:46:39.344Z,1001.31
2018-01-11T00:47:39.940Z,1001.36
2018-01-11T00:48:40.544Z,1001.33
2018-01-11T00:49:41.149Z,1001.32
2018-01-11T00:50:41.754Z,1001.35
2018-01-11T00:51:42.351Z,1001.35
2018-01-11T00:52:42.956Z,1001.37
2018-01-11T00:53:43.567Z,1001.37
2018-01-11T00:54:44.154Z,1001.38
2018-01-11T00:55:44.756Z,1001.37
2018-01-11T00:56:45.359Z,1001.41
2018-01-11T00:57:45.965Z,1001.41
2018-01-11T00:58:46.570Z,1001.43
2018-01-11T00:59:47.161Z,1001.39
2018-01-11T01:00:47.775Z,1001.41
2018-01-11T01:01:48.380Z,1001.42
2018-01-11T01:02:49.006Z,1001.46
2018-01-11T01:03:49.596Z,1001.44
2018-01-11T01:04:50.192Z,1001.41
2018-01-11T01:05:50.788Z,1001.41
2018-01-11T01:06:51.386Z,1001.38
2018-01-11T01:07:51.995Z,1001.38
2018-01-11T01:08:52.601Z,1001.33
2018-01-11T01:09:53.207Z,1001.40
2018-01-11T01:10:53.805Z,1001.36
2018-01-11T01:11:54.414Z,1001.42
2018-01-11T01:12:55.007Z,1001.41
2018-01-11T01:13:55.599Z,1001.42
2018-01-11T01:14:56.205Z,1001.41
2018-01-11T01:15:56.798Z,1001.36
2018-01-11T01:16:57.398Z,1001.37
2018-01-11T01:17:57.997Z,1001.34
2018-01-11T01:18:58.599Z,1001.33
2018-01-11T01:19:59.206Z,1001.34
2018-01-11T01:20:59.805Z,1001.35
2018-01-11T01:22:00.399Z,1001.33
2018-01-11T01:23:00.990Z,1001.31
2018-01-11T01:24:01.592Z,1001.38
2018-01-11T01:25:02.196Z,1001.36
2018-01-11T01:26:02.803Z,1001.38
2018-01-11T01:27:03.398Z,1001.37
2018-01-11T01:28:04.005Z,1001.37
2018-01-11T01:29:04.602Z,1001.37
2018-01-11T01:30:05.204Z,1001.40
2018-01-11T01:31:05.804Z,1001.40
2018-01-11T01:32:06.405Z,1001.41
2018-01-11T01:33:07.004Z,1001.44
2018-01-11T01:34:07.606Z,1001.45
2018-01-11T01:35:08.200Z,1001.48
2018-01-11T01:36:08.800Z,1001.47
2018-01-11T01:37:09.412Z,1001.48
2018-01-11T01:38:10.019Z,1001.49
2018-01-11T01:39:10.631Z,1001.53
2018-01-11T01:40:11.220Z,1001.54
2018-01-11T01:41:11.822Z,1001.56
2018-01-11T01:42:12.419Z,1001.62
2018-01-11T01:43:13.008Z,1001.66
2018-01-11T01:44:13.604Z,1001.68
2018-01-11T01:45:14.222Z,1001.70
2018-01-11T01:46:14.824Z,1001.71
2018-01-11T01:47:15.430Z,1001.75
2018-01-11T01:48:16.028Z,1001.74
2018-01-11T01:49:16.623Z,1001.77
2018-01-11T01:50:17.222Z,1001.78
2018-01-11T01:51:17.811Z,1001.78
2018-01-11T01:52:18.449Z,1001.79
2018-01-11T01:53:19.028Z,1001.79
2018-01-11T01:54:19.617Z,1001.73
2018-01-11T01:55:20.214Z,1001.75
2018-01-11T01:56:20.806Z,1001.74
2018-01-11T01:57:21.400Z,1001.75
2018-01-11T01:58:21.997Z,1001.72
2018-01-11T01:59:22.604Z,1001.75
2018-01-11T02:00:23.208Z,1001.76
2018-01-11T02:01:23.807Z,1001.77
2018-01-11T02:02:24.404Z,1001.79
2018-01-11T02:03:25.012Z,1001.81
2018-01-11T02:04:25.616Z,1001.84
2018-01-11T02:05:26.226Z,1001.84
2018-01-11T02:06:26.832Z,1001.83
2018-01-11T02:07:27.427Z,1001.91
2018-01-11T02:08:28.038Z,1001.90
2018-01-11T02:09:28.639Z,1001.87
2018-01-11T02:10:29.242Z,1001.92
2018-01-11T02:11:29.859Z,1001.93
2018-01-11T02:12:30.454Z,1001.95
2018-01-11T02:13:31.062Z,1001.95
2018-01-11T02:14:31.675Z,1001.92
2018-01-11T02:15:32.282Z,1001.94
2018-01-11T02:16:32.876Z,1001.95
2018-01-11T02:17:33.473Z,1001.95
2018-01-11T02:18:34.070Z,1002.00
2018-01-11T02:19:34.668Z,1001.98
2018-01-11T02:20:35.282Z,1001.98
2018-01-11T02:21:35.892Z,1001.96
2018-01-11T02:22:36.484Z,1001.91
2018-01-11T02:23:37.102Z,1001.94
2018-01-11T02:24:37.705Z,1001.98
2018-01-11T02:25:38.303Z,1002.00
2018-01-11T02:26:38.903Z,1002.00
2018-01-11T02:27:39.500Z,1002.02
2018-01-11T02:28:40.116Z,1001.96
2018-01-11T02:29:40.721Z,1001.97
2018-01-11T02:30:41.320Z,1001.98
2018-01-11T02:31:41.925Z,1001.96
2018-01-11T02:32:42.538Z,1002.00
2018-01-11T02:33:43.152Z,1001.96
2018-01-11T02:34:43.764Z,1002.03
2018-01-11T02:35:44.370Z,1002.02
2018-01-11T02:36:44.972Z,1001.97
2018-01-11T02:37:45.578Z,1002.01
2018-01-11T02:38:46.174Z,1002.03
2018-01-11T02:39:46.787Z,1002.06
2018-01-11T02:40:47.390Z,1002.04
2018-01-11T02:41:47.985Z,1002.04
2018-01-11T02:42:48.583Z,1002.11
2018-01-11T02:43:49.184Z,1002.09
2018-01-11T02:44:49.780Z,1002.10
2018-01-11T02:45:50.378Z,1002.08
2018-01-11T02:46:50.982Z,1002.11
2018-01-11T02:47:51.586Z,1002.11
2018-01-11T02:48:52.183Z,1002.06
2018-01-11T02:49:52.780Z,1002.09
2018-01-11T02:50:53.380Z,1002.13
2018-01-11T02:51:53.985Z,1002.13
2018-01-11T02:52:54.587Z,1002.11
2018-01-11T02:53:55.180Z,1002.15
2018-01-11T02:54:55.790Z,1002.17
2018-01-11T02:55:56.405Z,1002.15
2018-01-11T02:56:56.991Z,1002.18
2018-01-11T02:57:57.594Z,1002.16
2018-01-11T02:58:58.194Z,1002.20
2018-01-11T02:59:58.803Z,1002.14
2018-01-11T03:00:59.408Z,1002.19
2018-01-11T03:02:00.023Z,1002.21
2018-01-11T03:03:00.609Z,1002.21
2018-01-11T03:04:01.215Z,1002.23
2018-01-11T03:05:01.828Z,1002.27
2018-01-11T03:06:02.438Z,1002.26
2018-01-11T03:07:03.037Z,1002.25
2018-01-11T03:08:03.650Z,1002.30
2018-01-11T03:09:04.240Z,1002.30
2018-01-11T03:10:04.840Z,1002.31
2018-01-11T03:11:05.447Z,1002.30
2018-01-11T03:12:06.064Z,1002.28
2018-01-11T03:13:06.665Z,1002.34
2018-01-11T03:14:07.266Z,1002.36
2018-01-11T03:15:07.860Z,1002.36
2018-01-11T03:16:08.460Z,1002.40
2018-01-11T03:17:09.050Z,1002.39
2018-01-11T03:18:09.639Z,1002.37
2018-01-11T03:19:10.280Z,1002.36
2018-01-11T03:20:10.849Z,1002.40
2018-01-11T03:21:11.456Z,1002.40
2018-01-11T03:22:12.062Z,1002.41
2018-01-11T03:23:12.658Z,1002.43
2018-01-11T03:24:13.247Z,1002.44
2018-01-11T03:25:13.844Z,1002.43
2018-01-11T03:26:14.450Z,1002.41
2018-01-11T03:27:15.054Z,1002.36
2018-01-11T03:28:15.649Z,1002.42
2018-01-11T03:29:16.248Z,1002.44
2018-01-11T03:30:16.841Z,1002.45
2018-01-11T03:31:17.438Z,1002.45
2018-01-11T03:32:18.034Z,1002.44
2018-01-11T03:33:18.646Z,1002.43
2018-01-11T03:34:19.260Z,1002.40
2018-01-11T03:35:19.868Z,1002.40
2018-01-11T03:36:20.469Z,1002.43
2018-01-11T03:37:21.065Z,1002.44
2018-01-11T03:38:21.654Z,1002.42
2018-01-11T03:39:22.258Z,1002.43
2018-01-11T03:40:22.870Z,1002.42
2018-01-11T03:41:23.483Z,1002.43
2018-01-11T03:42:24.098Z,1002.42
2018-01-11T03:43:24.726Z,1002.41
2018-01-11T03:44:25.305Z,1002.46
2018-01-11T03:45:25.912Z,1002.43
2018-01-11T03:46:26.525Z,1002.41
2018-01-11T03:47:27.157Z,1002.45
2018-01-11T03:48:27.728Z,1002.43
2018-01-11T03:49:28.335Z,1002.41
2018-01-11T03:50:28.949Z,1002.41
2018-01-11T03:51:29.555Z,1002.42
2018-01-11T03:52:30.154Z,1002.44
2018-01-11T03:53:30.759Z,1002.43
2018-01-11T03:54:31.353Z,1002.42
2018-01-11T03:55:31.959Z,1002.41
2018-01-11T03:56:32.570Z,1002.44
2018-01-11T03:57:33.176Z,1002.43
2018-01-11T03:58:33.790Z,1002.42
2018-01-11T03:59:34.391Z,1002.43
2018-01-11T04:00:34.988Z,1002.43
2018-01-11T04:01:35.584Z,1002.44
2018-01-11T04:02:36.190Z,1002.44
2018-01-11T04:03:36.794Z,1002.43
2018-01-11T04:04:37.397Z,1002.41
2018-01-11T04:05:38.006Z,1002.45
2018-01-11T04:06:38.597Z,1002.44
2018-01-11T04:07:39.196Z,1002.43
2018-01-11T04:08:39.792Z,1002.42
2018-01-11T04:09:40.399Z,1002.46
2018-01-11T04:10:41.005Z,1002.43
2018-01-11T04:11:41.611Z,1002.45
2018-01-11T04:12:42.222Z,1002.40
2018-01-11T04:13:42.835Z,1002.39
2018-01-11T04:14:43.449Z,1002.42
2018-01-11T04:15:44.048Z,1002.40
2018-01-11T04:16:44.653Z,1002.40
2018-01-11T04:17:45.268Z,1002.44
2018-01-11T04:18:45.874Z,1002.46
2018-01-11T04:19:46.471Z,1002.48
2018-01-11T04:20:47.079Z,1002.50
2018-01-11T04:21:47.683Z,1002.47
2018-01-11T04:22:48.280Z,1002.44
2018-01-11T04:23:48.889Z,1002.49
2018-01-11T04:24:49.493Z,1002.52
2018-01-11T04:25:50.090Z,1002.50
2018-01-11T04:26:50.685Z,1002.49
2018-01-11T04:27:51.283Z,1002.51
2018-01-11T04:28:51.880Z,1002.52
2018-01-11T04:29:52.476Z,1002.55
2018-01-11T04:30:53.085Z,1002.56
2018-01-11T04:31:53.690Z,1002.56
2018-01-11T04:32:54.289Z,1002.58
2018-01-11T04:33:54.896Z,1002.56
2018-01-11T04:34:55.501Z,1002.53
2018-01-11T04:35:56.108Z,1002.57
2018-01-11T04:36:56.716Z,1002.59
2018-01-11T04:37:57.302Z,1002.59
2018-01-11T04:38:57.907Z,1002.59
2018-01-11T04:39:58.513Z,1002.58
2018-01-11T04:40:59.104Z,1002.61
2018-01-11T04:41:59.704Z,1002.60
2018-01-11T04:43:00.310Z,1002.63
2018-01-11T04:44:00.905Z,1002.64
2018-01-11T04:45:01.508Z,1002.68
2018-01-11T04:46:02.094Z,1002.69
2018-01-11T04:47:02.696Z,1002.69
2018-01-11T04:48:03.300Z,1002.69
2018-01-11T04:49:03.908Z,1002.67
2018-01-11T04:50:04.511Z,1002.70
2018-01-11T04:51:05.123Z,1002.68
2018-01-11T04:52:05.732Z,1002.64
2018-01-11T04:53:06.337Z,1002.62
2018-01-11T04:54:06.937Z,1002.64
2018-01-11T04:55:07.543Z,1002.65
2018-01-11T04:56:08.149Z,1002.67
2018-01-11T04:57:08.750Z,1002.71
2018-01-11T04:58:09.352Z,1002.72
2018-01-11T04:59:09.958Z,1002.75
2018-01-11T05:00:10.566Z,1002.75
2018-01-11T05:01:11.153Z,1002.76
2018-01-11T05:02:11.752Z,1002.78
2018-01-11T05:03:12.361Z,1002.75
2018-01-11T05:04:12.968Z,1002.76
2018-01-11T05:05:13.553Z,1002.78
2018-01-11T05:06:14.144Z,1002.81
2018-01-11T05:07:14.748Z,1002.81
2018-01-11T05:08:15.354Z,1002.82
2018-01-11T05:09:15.963Z,1002.83
2018-01-11T05:10:16.573Z,1002.85
2018-01-11T05:11:17.169Z,1002.88
2018-01-11T05:12:17.767Z,1002.88
2018-01-11T05:13:18.358Z,1002.89
2018-01-11T05:14:18.958Z,1002.92
2018-01-11T05:15:19.554Z,1002.95
2018-01-11T05:16:20.145Z,1002.96
2018-01-11T05:17:20.743Z,1003.00
2018-01-11T05:18:21.344Z,1003.00
2018-01-11T05:19:21.945Z,1003.02
2018-01-11T05:20:22.558Z,1003.02
2018-01-11T05:21:23.159Z,1003.02
2018-01-11T05:22:23.770Z,1003.04
2018-01-11T05:23:24.367Z,1003.08
2018-01-11T05:24:24.971Z,1003.05
2018-01-11T05:25:25.582Z,1003.06
2018-01-11T05:26:26.175Z,1003.07
2018-01-11T05:27:26.773Z,1003.03
2018-01-11T05:28:27.373Z,1003.07
2018-01-11T05:29:27.982Z,1003.09
2018-01-11T05:30:28.592Z,1003.12
2018-01-11T05:31:29.191Z,1003.12
2018-01-11T05:32:29.799Z,1003.15
2018-01-11T05:33:30.410Z,1003.19
2018-01-11T05:34:31.016Z,1003.15
2018-01-11T05:35:31.611Z,1003.21
2018-01-11T05:36:32.212Z,1003.21
2018-01-11T05:37:32.811Z,1003.21
2018-01-11T05:38:33.411Z,1003.23
2018-01-11T05:39:34.019Z,1003.22
2018-01-11T05:40:34.631Z,1003.25
2018-01-11T05:41:35.235Z,1003.28
2018-01-11T05:42:35.845Z,1003.26
2018-01-11T05:43:36.444Z,1003.25
2018-01-11T05:44:37.051Z,1003.27
2018-01-11T05:45:37.659Z,1003.25
2018-01-11T05:46:38.253Z,1003.27
2018-01-11T05:47:38.859Z,1003.27
2018-01-11T05:48:39.466Z,1003.28
2018-01-11T05:49:40.065Z,1003.27
2018-01-11T05:50:40.665Z,1003.31
2018-01-11T05:51:41.261Z,1003.33
2018-01-11T05:52:41.863Z,1003.32
2018-01-11T05:53:42.462Z,1003.35
2018-01-11T05:54:43.065Z,1003.33
2018-01-11T05:55:43.674Z,1003.35
2018-01-11T05:56:44.280Z,1003.37
2018-01-11T05:57:44.872Z,1003.39
2018-01-11T05:58:45.470Z,1003.40
2018-01-11T05:59:46.073Z,1003.38
2018-01-11T06:00:46.668Z,1003.41
2018-01-11T06:01:47.269Z,1003.44
2018-01-11T06:02:47.859Z,1003.45
2018-01-11T06:03:48.456Z,1003.51
2018-01-11T06:04:49.065Z,1003.49
2018-01-11T06:05:49.655Z,1003.50
2018-01-11T06:06:50.262Z,1003.53
2018-01-11T06:07:50.869Z,1003.52
2018-01-11T06:08:51.478Z,1003.54
2018-01-11T06:09:52.079Z,1003.54
2018-01-11T06:10:52.693Z,1003.52
2018-01-11T06:11:53.304Z,1003.59
2018-01-11T06:12:53.904Z,1003.58
2018-01-11T06:13:54.502Z,1003.63
2018-01-11T06:14:55.100Z,1003.60
2018-01-11T06:15:55.697Z,1003.62
2018-01-11T06:16:56.302Z,1003.65
2018-01-11T06:17:56.905Z,1003.64
2018-01-11T06:18:57.512Z,1003.67
2018-01-11T06:19:58.122Z,1003.64
2018-01-11T06:20:58.715Z,1003.66
2018-01-11T06:21:59.308Z,1003.65
2018-01-11T06:22:59.921Z,1003.64
2018-01-11T06:24:00.526Z,1003.67
2018-01-11T06:25:01.128Z,1003.68
2018-01-11T06:26:01.726Z,1003.72
2018-01-11T06:27:02.334Z,1003.76
2018-01-11T06:28:02.943Z,1003.74
2018-01-11T06:29:03.544Z,1003.78
2018-01-11T06:30:04.149Z,1003.74
2018-01-11T06:31:04.755Z,1003.77
2018-01-11T06:32:05.342Z,1003.77
2018-01-11T06:33:05.949Z,1003.82
2018-01-11T06:34:06.563Z,1003.81
2018-01-11T06:35:07.155Z,1003.82
2018-01-11T06:36:07.762Z,1003.84
2018-01-11T06:37:08.365Z,1003.83
2018-01-11T06:38:08.965Z,1003.85
2018-01-11T06:39:09.565Z,1003.87
2018-01-11T06:40:10.164Z,1003.87
2018-01-11T06:41:10.763Z,1003.88
2018-01-11T06:42:11.364Z,1003.89
2018-01-11T06:43:11.967Z,1003.89
2018-01-11T06:44:12.564Z,1003.93
2018-01-11T06:45:13.169Z,1003.95
2018-01-11T06:46:13.765Z,1003.96
2018-01-11T06:47:14.365Z,1003.98
2018-01-11T06:48:14.966Z,1003.98
2018-01-11T06:49:15.555Z,1004.01
2018-01-11T06:50:16.154Z,1004.02
2018-01-11T06:51:16.755Z,1004.00
2018-01-11T06:52:17.355Z,1004.02
2018-01-11T06:53:17.958Z,1004.04
2018-01-11T06:54:18.569Z,1004.06
2018-01-11T06:55:19.183Z,1004.13
2018-01-11T06:56:19.779Z,1004.11
2018-01-11T06:57:20.392Z,1004.11
2018-01-11T06:58:20.982Z,1004.15
2018-01-11T06:59:21.586Z,1004.15
2018-01-11T07:00:22.193Z,1004.17
2018-01-11T07:01:22.795Z,1004.17
2018-01-11T07:02:23.442Z,1004.16
2018-01-11T07:03:24.002Z,1004.23
2018-01-11T07:04:24.596Z,1004.23
2018-01-11T07:05:25.197Z,1004.25
2018-01-11T07:06:25.810Z,1004.23
2018-01-11T07:07:26.407Z,1004.28
2018-01-11T07:08:27.013Z,1004.26
2018-01-11T07:09:27.621Z,1004.30
2018-01-11T07:10:28.227Z,1004.22
2018-01-11T07:11:28.827Z,1004.23
2018-01-11T07:12:29.420Z,1004.24
2018-01-11T07:13:30.023Z,1004.25
2018-01-11T07:14:30.627Z,1004.33
2018-01-11T07:15:31.241Z,1004.29
2018-01-11T07:16:31.857Z,1004.34
2018-01-11T07:17:32.454Z,1004.32
2018-01-11T07:18:33.061Z,1004.33
2018-01-11T07:19:33.686Z,1004.36
2018-01-11T07:20:34.259Z,1004.38
2018-01-11T07:21:34.848Z,1004.39
2018-01-11T07:22:35.442Z,1004.38
2018-01-11T07:23:36.050Z,1004.40
2018-01-11T07:24:36.652Z,1004.39
2018-01-11T07:25:37.246Z,1004.46
2018-01-11T07:26:37.854Z,1004.45
2018-01-11T07:27:38.464Z,1004.50
2018-01-11T07:28:39.068Z,1004.50
2018-01-11T07:29:39.772Z,1004.52
2018-01-11T07:30:40.357Z,1004.50
2018-01-11T07:31:40.961Z,1004.55
2018-01-11T07:32:41.562Z,1004.50
2018-01-11T07:33:42.167Z,1004.54
2018-01-11T07:34:42.776Z,1004.56
2018-01-11T07:35:43.381Z,1004.59
2018-01-11T07:36:43.988Z,1004.56
2018-01-11T07:37:44.599Z,1004.59
2018-01-11T07:38:45.210Z,1004.59
2018-01-11T07:39:45.812Z,1004.61
2018-01-11T07:40:46.421Z,1004.61
2018-01-11T07:41:47.026Z,1004.58
2018-01-11T07:42:47.638Z,1004.64
2018-01-11T07:43:48.251Z,1004.69
2018-01-11T07:44:48.850Z,1004.68
2018-01-11T07:45:49.454Z,1004.65
2018-01-11T07:46:50.065Z,1004.64
2018-01-11T07:47:50.686Z,1004.67
2018-01-11T07:48:51.277Z,1004.70
2018-01-11T07:49:51.879Z,1004.72
2018-01-11T07:50:52.492Z,1004.75
2018-01-11T07:51:53.104Z,1004.72
2018-01-11T07:52:53.717Z,1004.76
2018-01-11T07:53:54.321Z,1004.76
2018-01-11T07:54:54.922Z,1004.78
2018-01-11T07:55:55.526Z,1004.78
2018-01-11T07:56:56.143Z,1004.78
2018-01-11T07:57:56.749Z,1004.81
2018-01-11T07:58:57.351Z,1004.81
2018-01-11T07:59:57.960Z,1004.89
2018-01-11T08:00:58.556Z,1004.89
2018-01-11T08:01:59.151Z,1004.87
2018-01-11T08:02:59.750Z,1004.91
2018-01-11T08:04:00.350Z,1004.92
2018-01-11T08:05:00.958Z,1004.93
2018-01-11T08:06:01.562Z,1004.95
2018-01-11T08:07:02.185Z,1004.95
2018-01-11T08:08:02.793Z,1004.97
2018-01-11T08:09:03.395Z,1005.00
2018-01-11T08:10:04.004Z,1005.04
2018-01-11T08:11:04.615Z,1005.03
2018-01-11T08:12:05.226Z,1005.07
2018-01-11T08:13:05.831Z,1005.10
2018-01-11T08:14:06.439Z,1005.12
2018-01-11T08:15:07.035Z,1005.16
2018-01-11T08:16:07.640Z,1005.19
2018-01-11T08:17:08.244Z,1005.19
2018-01-11T08:18:08.859Z,1005.22
2018-01-11T08:19:09.457Z,1005.24
2018-01-11T08:20:10.073Z,1005.24
2018-01-11T08:21:10.677Z,1005.26
2018-01-11T08:22:11.275Z,1005.22
2018-01-11T08:23:11.875Z,1005.26
2018-01-11T08:24:12.489Z,1005.25
2018-01-11T08:25:13.103Z,1005.22
2018-01-11T08:26:13.700Z,1005.23
2018-01-11T08:27:14.310Z,1005.28
2018-01-11T08:28:14.950Z,1005.26
2018-01-11T08:29:15.533Z,1005.29
2018-01-11T08:30:16.134Z,1005.29
2018-01-11T08:31:16.741Z,1005.33
2018-01-11T08:32:17.350Z,1005.30
2018-01-11T08:33:17.960Z,1005.34
2018-01-11T08:34:18.563Z,1005.32
2018-01-11T08:35:19.169Z,1005.35
2018-01-11T08:36:19.776Z,1005.37
2018-01-11T08:37:20.377Z,1005.40
2018-01-11T08:38:20.982Z,1005.44
2018-01-11T08:39:21.584Z,1005.38
2018-01-11T08:40:22.200Z,1005.40
2018-01-11T08:41:22.818Z,1005.43
2018-01-11T08:42:23.419Z,1005.37
2018-01-11T08:43:24.033Z,1005.38
2018-01-11T08:44:24.646Z,1005.35
2018-01-11T08:45:25.266Z,1005.36
2018-01-11T08:46:25.896Z,1005.35
2018-01-11T08:47:26.511Z,1005.35
2018-01-11T08:48:27.118Z,1005.37
2018-01-11T08:49:27.721Z,1005.37
2018-01-11T08:50:28.327Z,1005.40
2018-01-11T08:51:36.622Z,1005.42
2018-01-11T08:52:37.234Z,1005.48
2018-01-11T08:53:38.071Z,1005.47
2018-01-11T08:54:38.677Z,1005.48
2018-01-11T08:55:39.286Z,1005.48
2018-01-11T08:56:42.649Z,1005.50
2018-01-11T08:57:48.418Z,1005.50
2018-01-11T08:58:49.034Z,1005.55
2018-01-11T08:59:49.641Z,1005.57
2018-01-11T09:00:50.299Z,1005.58
2018-01-11T09:01:51.147Z,1005.59
2018-01-11T09:02:51.777Z,1005.61
2018-01-11T09:03:52.389Z,1005.65
2018-01-11T09:04:53.000Z,1005.63
2018-01-11T09:05:53.612Z,1005.68
2018-01-11T09:06:54.223Z,1005.66
2018-01-11T09:07:54.835Z,1005.70
2018-01-11T09:08:55.498Z,1005.69
2018-01-11T09:09:56.056Z,1005.70
2018-01-11T09:10:56.667Z,1005.74
2018-01-11T09:11:57.286Z,1005.78
2018-01-11T09:12:57.896Z,1005.75
2018-01-11T09:13:58.544Z,1005.81
2018-01-11T09:14:59.137Z,1005.81
2018-01-11T09:15:59.770Z,1005.81
2018-01-11T09:17:00.388Z,1005.82
2018-01-11T09:18:01.012Z,1005.82
2018-01-11T09:19:01.629Z,1005.88
2018-01-11T09:20:02.315Z,1005.87
2018-01-11T09:21:02.894Z,1005.89
2018-01-11T09:22:03.769Z,1005.91
2018-01-11T09:23:04.636Z,1005.95
2018-01-11T09:24:05.275Z,1005.95
2018-01-11T09:25:05.886Z,1005.94
2018-01-11T09:26:06.499Z,1005.95
2018-01-11T09:27:07.131Z,1005.95
2018-01-11T09:28:07.745Z,1005.99
2018-01-11T09:29:08.399Z,1005.94
2018-01-11T09:30:08.977Z,1005.95
2018-01-11T09:31:09.611Z,1005.96
2018-01-11T09:32:10.293Z,1005.96
2018-01-11T09:33:10.904Z,1005.99
2018-01-11T09:34:11.539Z,1006.00
2018-01-11T09:35:12.150Z,1006.02
2018-01-11T09:36:12.762Z,1006.04
2018-01-11T09:37:13.373Z,1006.03
2018-01-11T09:38:14.000Z,1005.99
2018-01-11T09:39:14.609Z,1006.00
2018-01-11T09:40:15.229Z,1006.01
2018-01-11T09:41:15.846Z,1006.06
2018-01-11T09:42:16.509Z,1006.06
2018-01-11T09:43:17.088Z,1006.08
2018-01-11T09:44:17.723Z,1006.10
2018-01-11T09:45:18.334Z,1006.08
2018-01-11T09:46:19.010Z,1006.09
2018-01-11T09:47:19.575Z,1006.11
2018-01-11T09:48:20.272Z,1006.13
2018-01-11T09:49:20.901Z,1006.14
2018-01-11T09:50:21.825Z,1006.13
2018-01-11T09:51:22.405Z,1006.12
2018-01-11T09:52:23.082Z,1006.16
2018-01-11T09:53:23.702Z,1006.12
2018-01-11T09:54:24.508Z,1006.09
2018-01-11T09:55:25.307Z,1006.11
2018-01-11T09:56:26.234Z,1006.12
2018-01-11T09:57:26.997Z,1006.12
2018-01-11T09:58:27.606Z,1006.12
2018-01-11T09:59:28.578Z,1006.10
2018-01-11T10:00:29.283Z,1006.18
2018-01-11T10:01:29.899Z,1006.14
2018-01-11T10:02:30.562Z,1006.11
2018-01-11T10:03:33.212Z,1006.14
2018-01-11T10:04:34.169Z,1006.12
2018-01-11T10:05:34.937Z,1006.13
2018-01-11T10:06:36.466Z,1006.13
2018-01-11T10:07:37.282Z,1006.14
2018-01-11T10:08:37.969Z,1006.13
2018-01-11T10:09:39.383Z,1006.10
2018-01-11T10:10:40.606Z,1006.07
2018-01-11T10:11:41.283Z,1006.14
2018-01-11T10:12:41.922Z,1006.11
2018-01-11T10:13:42.488Z,1006.15
2018-01-11T10:14:43.727Z,1006.16
2018-01-11T10:15:44.651Z,1006.13
2018-01-11T10:16:45.207Z,1006.20
2018-01-11T10:17:45.877Z,1006.19
2018-01-11T10:18:47.972Z,1006.23
2018-01-11T10:19:49.235Z,1006.22
2018-01-11T10:20:50.190Z,1006.26
2018-01-11T10:21:50.882Z,1006.22
2018-01-11T10:22:51.753Z,1006.20
2018-01-11T10:23:52.337Z,1006.18
2018-01-11T10:24:52.976Z,1006.19
2018-01-11T10:25:53.597Z,1006.20
2018-01-11T10:26:54.412Z,1006.17
2018-01-11T10:27:55.024Z,1006.19
2018-01-11T10:28:55.688Z,1006.15
2018-01-11T10:29:56.292Z,1006.14
2018-01-11T10:30:56.912Z,1006.16
2018-01-11T10:31:57.519Z,1006.14
2018-01-11T10:32:58.129Z,1006.16
2018-01-11T10:33:58.801Z,1006.19
2018-01-11T10:34:59.385Z,1006.23
2018-01-11T10:35:59.996Z,1006.23
2018-01-11T10:37:00.614Z,1006.21
2018-01-11T10:38:01.217Z,1006.25
2018-01-11T10:39:01.837Z,1006.29
2018-01-11T10:40:02.442Z,1006.29
2018-01-11T10:41:03.076Z,1006.31
2018-01-11T10:42:03.683Z,1006.28
2018-01-11T10:43:04.298Z,1006.27
2018-01-11T10:44:04.924Z,1006.28
2018-01-11T10:45:05.544Z,1006.28
2018-01-11T10:46:06.161Z,1006.28
2018-01-11T10:47:06.782Z,1006.30
2018-01-11T10:48:07.396Z,1006.33
2018-01-11T10:49:08.055Z,1006.30
2018-01-11T10:50:08.618Z,1006.30
2018-01-11T10:51:09.233Z,1006.29
2018-01-11T10:52:09.842Z,1006.29
2018-01-11T10:53:10.455Z,1006.29
2018-01-11T10:54:11.055Z,1006.33
2018-01-11T10:55:11.663Z,1006.29
2018-01-11T10:56:12.270Z,1006.29
2018-01-11T10:57:12.887Z,1006.28
2018-01-11T10:58:13.495Z,1006.32
2018-01-11T10:59:14.116Z,1006.27
2018-01-11T11:00:14.751Z,1006.30
2018-01-11T11:01:15.364Z,1006.30
2018-01-11T11:02:15.971Z,1006.33
2018-01-11T11:03:16.581Z,1006.29
2018-01-11T11:04:17.187Z,1006.30
2018-01-11T11:05:17.802Z,1006.30
2018-01-11T11:06:18.439Z,1006.31
2018-01-11T11:07:19.019Z,1006.32
2018-01-11T11:08:19.641Z,1006.31
2018-01-11T11:09:20.258Z,1006.31
2018-01-11T11:10:20.861Z,1006.29
2018-01-11T11:11:21.479Z,1006.32
2018-01-11T11:12:22.091Z,1006.32
2018-01-11T11:13:22.747Z,1006.32
2018-01-11T11:14:23.328Z,1006.35
2018-01-11T11:15:23.948Z,1006.33
2018-01-11T11:16:24.581Z,1006.33
2018-01-11T11:17:25.210Z,1006.36
2018-01-11T11:18:25.833Z,1006.35
2018-01-11T11:19:26.447Z,1006.35
2018-01-11T11:20:27.071Z,1006.35
2018-01-11T11:21:27.678Z,1006.33
2018-01-11T11:22:28.285Z,1006.33
2018-01-11T11:23:28.916Z,1006.32
2018-01-11T11:24:29.530Z,1006.30
2018-01-11T11:25:30.136Z,1006.34
2018-01-11T11:26:30.751Z,1006.36
2018-01-11T11:27:31.357Z,1006.41
2018-01-11T11:28:31.960Z,1006.40
2018-01-11T11:29:32.570Z,1006.40
2018-01-11T11:30:33.169Z,1006.41
2018-01-11T11:31:33.777Z,1006.40
2018-01-11T11:32:34.388Z,1006.43
2018-01-11T11:33:34.998Z,1006.43
2018-01-11T11:34:35.620Z,1006.39
2018-01-11T11:35:36.245Z,1006.38
2018-01-11T11:36:36.874Z,1006.37
2018-01-11T11:37:37.480Z,1006.37
2018-01-11T11:38:38.105Z,1006.41
2018-01-11T11:39:38.719Z,1006.35
2018-01-11T11:40:39.364Z,1006.37
2018-01-11T11:41:39.981Z,1006.39
2018-01-11T11:42:40.605Z,1006.43
2018-01-11T11:43:41.231Z,1006.43
2018-01-11T11:44:41.855Z,1006.45
2018-01-11T11:45:42.481Z,1006.42
2018-01-11T11:46:43.105Z,1006.46
2018-01-11T11:47:43.729Z,1006.45
2018-01-11T11:48:44.333Z,1006.45
2018-01-11T11:49:44.960Z,1006.47
2018-01-11T11:50:45.607Z,1006.49
2018-01-11T11:51:46.210Z,1006.45
2018-01-11T11:52:46.832Z,1006.45
2018-01-11T11:53:47.443Z,1006.46
2018-01-11T11:54:48.044Z,1006.47
2018-01-11T11:55:48.649Z,1006.47
2018-01-11T11:56:49.259Z,1006.51
2018-01-11T11:57:49.888Z,1006.49
2018-01-11T11:58:50.489Z,1006.50
2018-01-11T11:59:51.107Z,1006.48
2018-01-11T12:00:51.721Z,1006.47
2018-01-11T12:01:52.337Z,1006.48
2018-01-11T12:02:52.950Z,1006.48
2018-01-11T12:03:53.573Z,1006.50
2018-01-11T12:04:54.414Z,1006.53
2018-01-11T12:05:55.026Z,1006.52
2018-01-11T12:06:55.651Z,1006.51
2018-01-11T12:07:57.018Z,1006.54
2018-01-11T12:08:57.525Z,1006.52
2018-01-11T12:09:58.156Z,1006.51
2018-01-11T12:10:58.986Z,1006.52
2018-01-11T12:11:59.600Z,1006.57
2018-01-11T12:13:00.216Z,1006.56